Unbenanntes Dokument
Flugplatz Bielefeld Platzwetter

 

Aktuelles Platzwetter am Flugplatz Bielefeld EDLI

21.01.19 ,19:49 Uhr

METAR EDLI 211949Z 08002KT 9999 M05/M06 Q1019

 

Windwerte

 

Wolkenuntergrenzen

Wind aktuell:090 ° mit 3 kt
Wind 10 min Extrem:
50 ° bis 110 ° mit 1 kt bis 3 kt
Seitenwindkomponente: -0.9 kt
Wolkengrenze 1:
Wolkengrenze 2:
Wolkengrenze 3:

Webcam

Temperatur

       

Sichtweite:

10.000 Meter

-5.4 °C
Taupunkt: -5.9 °C
Luftfeuchtigkeit: 95 %

Luftdruck:

QNH: 1019 hPa (30.09 in Hg)
QFE: 1003 hPa (29.62 in Hg)

Diese Daten werden automatisch ermittelt bzw. übertragen und sind nicht geprüft. Für die Richtigkeit wird daher keine Gewähr übernommen. Sie ersetzen im übrigen nicht die Flugwetterberatung. Alle Zeitangaben beziehen sich auf UTC. Die Seite wird einmal die Minute aktualisiert! Sollten Sie ein ältere Seite haben, so drücken Sie bitte auf den Reload Button Ihres Browsers!